sensor_id;sensor_type;location;lat;lon;timestamp;P1;durP1;ratioP1;P2;durP2;ratioP2
7843;SDS011;3967;48.702;9.326;2022-07-29T00:02:14;6.30;;;5.73;;
7843;SDS011;3967;48.702;9.326;2022-07-29T00:04:41;7.03;;;6.43;;
7843;SDS011;3967;48.702;9.326;2022-07-29T00:07:08;5.10;;;4.37;;
7843;SDS011;3967;48.702;9.326;2022-07-29T00:09:35;4.70;;;4.23;;
7843;SDS011;3967;48.702;9.326;2022-07-29T00:12:16;5.20;;;4.70;;
7843;SDS011;3967;48.702;9.326;2022-07-29T00:14:52;4.50;;;4.10;;
7843;SDS011;3967;48.702;9.326;2022-07-29T00:17:20;4.30;;;3.90;;
7843;SDS011;3967;48.702;9.326;2022-07-29T00:19:47;4.83;;;4.47;;
7843;SDS011;3967;48.702;9.326;2022-07-29T00:22:14;4.03;;;3.73;;
7843;SDS011;3967;48.702;9.326;2022-07-29T00:24:40;4.13;;;3.83;;
7843;SDS011;3967;48.702;9.326;2022-07-29T00:27:07;6.47;;;5.90;;
7843;SDS011;3967;48.702;9.326;2022-07-29T00:29:34;5.73;;;5.33;;
7843;SDS011;3967;48.702;9.326;2022-07-29T00:32:01;4.53;;;4.13;;
7843;SDS011;3967;48.702;9.326;2022-07-29T00:34:29;8.97;;;4.60;;
7843;SDS011;3967;48.702;9.326;2022-07-29T00:37:15;4.87;;;4.40;;
7843;SDS011;3967;48.702;9.326;2022-07-29T00:39:41;5.33;;;4.93;;
7843;SDS011;3967;48.702;9.326;2022-07-29T00:42:08;4.60;;;4.20;;
7843;SDS011;3967;48.702;9.326;2022-07-29T00:44:39;5.37;;;4.63;;
7843;SDS011;3967;48.702;9.326;2022-07-29T00:47:07;4.57;;;4.23;;
7843;SDS011;3967;48.702;9.326;2022-07-29T00:49:35;5.13;;;4.63;;
7843;SDS011;3967;48.702;9.326;2022-07-29T00:52:03;5.50;;;4.83;;
7843;SDS011;3967;48.702;9.326;2022-07-29T00:54:33;4.73;;;4.43;;
7843;SDS011;3967;48.702;9.326;2022-07-29T00:57:04;4.63;;;4.23;;
7843;SDS011;3967;48.702;9.326;2022-07-29T00:59:32;4.90;;;4.50;;
7843;SDS011;3967;48.702;9.326;2022-07-29T01:02:01;4.87;;;4.47;;
7843;SDS011;3967;48.702;9.326;2022-07-29T01:04:29;4.33;;;4.03;;
7843;SDS011;3967;48.702;9.326;2022-07-29T01:06:56;4.97;;;4.50;;
7843;SDS011;3967;48.702;9.326;2022-07-29T01:09:24;5.43;;;4.93;;
7843;SDS011;3967;48.702;9.326;2022-07-29T01:12:12;8.30;;;4.63;;
7843;SDS011;3967;48.702;9.326;2022-07-29T01:14:42;5.57;;;5.07;;
7843;SDS011;3967;48.702;9.326;2022-07-29T01:17:10;5.30;;;4.90;;
7843;SDS011;3967;48.702;9.326;2022-07-29T01:19:48;3.83;;;3.53;;
7843;SDS011;3967;48.702;9.326;2022-07-29T01:27:43;5.07;;;4.57;;
7843;SDS011;3967;48.702;9.326;2022-07-29T01:30:26;5.37;;;4.97;;
7843;SDS011;3967;48.702;9.326;2022-07-29T01:32:59;4.30;;;4.00;;
7843;SDS011;3967;48.702;9.326;2022-07-29T01:35:31;3.83;;;3.53;;
7843;SDS011;3967;48.702;9.326;2022-07-29T01:38:12;4.10;;;3.80;;
7843;SDS011;3967;48.702;9.326;2022-07-29T01:43:16;4.93;;;4.50;;
7843;SDS011;3967;48.702;9.326;2022-07-29T01:45:50;4.10;;;3.90;;
7843;SDS011;3967;48.702;9.326;2022-07-29T01:48:26;4.03;;;3.73;;
7843;SDS011;3967;48.702;9.326;2022-07-29T01:53:42;3.33;;;3.13;;
7843;SDS011;3967;48.702;9.326;2022-07-29T01:56:14;3.53;;;3.27;;
7843;SDS011;3967;48.702;9.326;2022-07-29T01:58:44;3.80;;;3.60;;
7843;SDS011;3967;48.702;9.326;2022-07-29T02:01:13;3.60;;;3.37;;
7843;SDS011;3967;48.702;9.326;2022-07-29T02:03:44;3.23;;;3.03;;
7843;SDS011;3967;48.702;9.326;2022-07-29T02:06:13;3.77;;;3.40;;
7843;SDS011;3967;48.702;9.326;2022-07-29T02:08:46;3.10;;;2.90;;
7843;SDS011;3967;48.702;9.326;2022-07-29T02:11:13;3.93;;;3.57;;
7843;SDS011;3967;48.702;9.326;2022-07-29T02:13:40;3.93;;;2.67;;
7843;SDS011;3967;48.702;9.326;2022-07-29T02:16:08;3.10;;;2.80;;
7843;SDS011;3967;48.702;9.326;2022-07-29T02:18:37;3.63;;;3.27;;
7843;SDS011;3967;48.702;9.326;2022-07-29T02:21:07;4.10;;;3.20;;
7843;SDS011;3967;48.702;9.326;2022-07-29T02:23:40;4.30;;;3.50;;
7843;SDS011;3967;48.702;9.326;2022-07-29T02:26:16;3.00;;;2.80;;
7843;SDS011;3967;48.702;9.326;2022-07-29T02:28:45;3.27;;;2.97;;
7843;SDS011;3967;48.702;9.326;2022-07-29T02:31:13;3.77;;;3.57;;
7843;SDS011;3967;48.702;9.326;2022-07-29T02:33:42;3.93;;;3.63;;
7843;SDS011;3967;48.702;9.326;2022-07-29T02:36:09;3.30;;;3.10;;
7843;SDS011;3967;48.702;9.326;2022-07-29T02:38:37;3.47;;;3.10;;
7843;SDS011;3967;48.702;9.326;2022-07-29T02:41:17;3.97;;;3.67;;
7843;SDS011;3967;48.702;9.326;2022-07-29T02:44:02;4.30;;;4.00;;
7843;SDS011;3967;48.702;9.326;2022-07-29T02:46:33;3.30;;;3.10;;
7843;SDS011;3967;48.702;9.326;2022-07-29T02:49:06;9.40;;;4.00;;
7843;SDS011;3967;48.702;9.326;2022-07-29T02:51:53;4.03;;;3.73;;
7843;SDS011;3967;48.702;9.326;2022-07-29T02:54:26;4.60;;;4.20;;
7843;SDS011;3967;48.702;9.326;2022-07-29T02:56:59;5.10;;;4.60;;
7843;SDS011;3967;48.702;9.326;2022-07-29T02:59:30;3.90;;;3.60;;
7843;SDS011;3967;48.702;9.326;2022-07-29T03:01:58;3.80;;;3.50;;
7843;SDS011;3967;48.702;9.326;2022-07-29T03:04:26;3.60;;;3.30;;
7843;SDS011;3967;48.702;9.326;2022-07-29T03:06:55;3.47;;;3.20;;
7843;SDS011;3967;48.702;9.326;2022-07-29T03:09:25;3.13;;;2.90;;
7843;SDS011;3967;48.702;9.326;2022-07-29T03:11:54;3.13;;;2.87;;
7843;SDS011;3967;48.702;9.326;2022-07-29T03:14:21;3.77;;;3.40;;
7843;SDS011;3967;48.702;9.326;2022-07-29T03:16:50;3.37;;;3.07;;
7843;SDS011;3967;48.702;9.326;2022-07-29T03:19:18;3.07;;;2.87;;
7843;SDS011;3967;48.702;9.326;2022-07-29T03:21:46;4.00;;;3.57;;
7843;SDS011;3967;48.702;9.326;2022-07-29T03:24:32;4.20;;;3.23;;
7843;SDS011;3967;48.702;9.326;2022-07-29T03:27:00;3.60;;;3.33;;
7843;SDS011;3967;48.702;9.326;2022-07-29T03:29:29;3.90;;;3.60;;
7843;SDS011;3967;48.702;9.326;2022-07-29T03:31:59;3.20;;;3.00;;
7843;SDS011;3967;48.702;9.326;2022-07-29T03:34:29;7.23;;;3.60;;
7843;SDS011;3967;48.702;9.326;2022-07-29T03:36:56;3.90;;;3.60;;
7843;SDS011;3967;48.702;9.326;2022-07-29T03:39:23;2.83;;;2.73;;
7843;SDS011;3967;48.702;9.326;2022-07-29T03:41:55;2.87;;;2.67;;
7843;SDS011;3967;48.702;9.326;2022-07-29T03:44:23;2.87;;;2.70;;
7843;SDS011;3967;48.702;9.326;2022-07-29T03:46:52;3.70;;;3.40;;
7843;SDS011;3967;48.702;9.326;2022-07-29T03:49:22;3.57;;;3.20;;
7843;SDS011;3967;48.702;9.326;2022-07-29T03:51:51;3.17;;;2.90;;
7843;SDS011;3967;48.702;9.326;2022-07-29T03:54:18;3.90;;;3.60;;
7843;SDS011;3967;48.702;9.326;2022-07-29T03:56:46;4.83;;;3.70;;
7843;SDS011;3967;48.702;9.326;2022-07-29T03:59:16;3.90;;;3.60;;
7843;SDS011;3967;48.702;9.326;2022-07-29T04:01:45;3.70;;;3.40;;
7843;SDS011;3967;48.702;9.326;2022-07-29T04:04:13;3.70;;;3.50;;
7843;SDS011;3967;48.702;9.326;2022-07-29T04:06:41;4.03;;;3.60;;
7843;SDS011;3967;48.702;9.326;2022-07-29T04:09:09;4.80;;;4.50;;
7843;SDS011;3967;48.702;9.326;2022-07-29T04:11:38;4.53;;;4.10;;
7843;SDS011;3967;48.702;9.326;2022-07-29T04:14:25;4.97;;;4.27;;
7843;SDS011;3967;48.702;9.326;2022-07-29T04:16:52;3.70;;;3.40;;
7843;SDS011;3967;48.702;9.326;2022-07-29T04:19:19;4.67;;;4.30;;
7843;SDS011;3967;48.702;9.326;2022-07-29T04:21:46;5.40;;;4.80;;
7843;SDS011;3967;48.702;9.326;2022-07-29T04:24:12;4.73;;;4.43;;
7843;SDS011;3967;48.702;9.326;2022-07-29T04:26:40;4.20;;;3.90;;
7843;SDS011;3967;48.702;9.326;2022-07-29T04:29:06;5.10;;;4.57;;
7843;SDS011;3967;48.702;9.326;2022-07-29T04:31:33;4.70;;;4.30;;
7843;SDS011;3967;48.702;9.326;2022-07-29T04:34:00;4.33;;;3.93;;
7843;SDS011;3967;48.702;9.326;2022-07-29T04:36:27;4.73;;;4.43;;
7843;SDS011;3967;48.702;9.326;2022-07-29T04:38:55;5.80;;;4.20;;
7843;SDS011;3967;48.702;9.326;2022-07-29T04:41:22;4.43;;;3.97;;
7843;SDS011;3967;48.702;9.326;2022-07-29T04:43:58;5.20;;;3.93;;
7843;SDS011;3967;48.702;9.326;2022-07-29T04:46:27;3.87;;;3.57;;
7843;SDS011;3967;48.702;9.326;2022-07-29T04:48:54;4.47;;;4.10;;
7843;SDS011;3967;48.702;9.326;2022-07-29T04:51:20;4.60;;;4.23;;
7843;SDS011;3967;48.702;9.326;2022-07-29T04:53:47;4.33;;;3.97;;
7843;SDS011;3967;48.702;9.326;2022-07-29T04:56:14;5.13;;;4.67;;
7843;SDS011;3967;48.702;9.326;2022-07-29T04:58:41;4.97;;;4.43;;
7843;SDS011;3967;48.702;9.326;2022-07-29T05:01:07;4.43;;;4.13;;
7843;SDS011;3967;48.702;9.326;2022-07-29T05:03:34;4.77;;;4.30;;
7843;SDS011;3967;48.702;9.326;2022-07-29T05:06:01;5.37;;;4.90;;
7843;SDS011;3967;48.702;9.326;2022-07-29T05:08:31;5.60;;;5.17;;
7843;SDS011;3967;48.702;9.326;2022-07-29T05:11:06;5.93;;;5.43;;
7843;SDS011;3967;48.702;9.326;2022-07-29T05:13:38;5.60;;;5.10;;
7843;SDS011;3967;48.702;9.326;2022-07-29T05:16:11;5.83;;;5.30;;
7843;SDS011;3967;48.702;9.326;2022-07-29T05:18:39;7.70;;;6.57;;
7843;SDS011;3967;48.702;9.326;2022-07-29T05:21:06;5.97;;;5.57;;
7843;SDS011;3967;48.702;9.326;2022-07-29T05:23:32;6.87;;;6.27;;
7843;SDS011;3967;48.702;9.326;2022-07-29T05:25:59;8.07;;;7.40;;
7843;SDS011;3967;48.702;9.326;2022-07-29T05:28:26;9.17;;;8.27;;
7843;SDS011;3967;48.702;9.326;2022-07-29T05:30:52;9.47;;;8.57;;
7843;SDS011;3967;48.702;9.326;2022-07-29T05:33:19;8.87;;;7.97;;
7843;SDS011;3967;48.702;9.326;2022-07-29T05:36:02;8.13;;;7.30;;
7843;SDS011;3967;48.702;9.326;2022-07-29T05:38:33;8.23;;;7.50;;
7843;SDS011;3967;48.702;9.326;2022-07-29T05:41:01;7.63;;;6.97;;
7843;SDS011;3967;48.702;9.326;2022-07-29T05:43:28;8.37;;;7.33;;
7843;SDS011;3967;48.702;9.326;2022-07-29T05:45:55;8.03;;;7.23;;
7843;SDS011;3967;48.702;9.326;2022-07-29T05:48:23;9.37;;;8.47;;
7843;SDS011;3967;48.702;9.326;2022-07-29T05:50:50;8.93;;;8.13;;
7843;SDS011;3967;48.702;9.326;2022-07-29T05:53:17;8.67;;;7.87;;
7843;SDS011;3967;48.702;9.326;2022-07-29T05:55:46;7.80;;;7.10;;
7843;SDS011;3967;48.702;9.326;2022-07-29T05:58:13;9.27;;;7.23;;
7843;SDS011;3967;48.702;9.326;2022-07-29T06:00:40;8.73;;;7.60;;
7843;SDS011;3967;48.702;9.326;2022-07-29T06:03:07;9.10;;;6.97;;
7843;SDS011;3967;48.702;9.326;2022-07-29T06:05:33;9.03;;;7.13;;
7843;SDS011;3967;48.702;9.326;2022-07-29T06:08:00;7.87;;;6.97;;
7843;SDS011;3967;48.702;9.326;2022-07-29T06:10:27;6.90;;;6.37;;
7843;SDS011;3967;48.702;9.326;2022-07-29T06:12:53;6.77;;;6.20;;
7843;SDS011;3967;48.702;9.326;2022-07-29T06:15:20;7.30;;;6.60;;
7843;SDS011;3967;48.702;9.326;2022-07-29T06:17:47;7.50;;;6.47;;
7843;SDS011;3967;48.702;9.326;2022-07-29T06:20:27;7.30;;;6.47;;
7843;SDS011;3967;48.702;9.326;2022-07-29T06:22:57;6.90;;;6.20;;
7843;SDS011;3967;48.702;9.326;2022-07-29T06:25:24;7.07;;;6.47;;
7843;SDS011;3967;48.702;9.326;2022-07-29T06:27:51;8.33;;;6.83;;
7843;SDS011;3967;48.702;9.326;2022-07-29T06:30:18;6.07;;;5.60;;
7843;SDS011;3967;48.702;9.326;2022-07-29T06:32:45;5.83;;;5.33;;
7843;SDS011;3967;48.702;9.326;2022-07-29T06:35:12;10.03;;;6.13;;
7843;SDS011;3967;48.702;9.326;2022-07-29T06:37:58;5.83;;;5.33;;
7843;SDS011;3967;48.702;9.326;2022-07-29T06:40:25;4.87;;;4.57;;
7843;SDS011;3967;48.702;9.326;2022-07-29T06:43:10;4.60;;;4.30;;
7843;SDS011;3967;48.702;9.326;2022-07-29T06:45:37;4.87;;;4.43;;
7843;SDS011;3967;48.702;9.326;2022-07-29T06:48:07;3.80;;;3.60;;
7843;SDS011;3967;48.702;9.326;2022-07-29T06:50:34;5.03;;;3.70;;
7843;SDS011;3967;48.702;9.326;2022-07-29T06:53:01;3.67;;;3.37;;
7843;SDS011;3967;48.702;9.326;2022-07-29T06:55:28;3.43;;;3.23;;
7843;SDS011;3967;48.702;9.326;2022-07-29T06:57:55;3.50;;;3.20;;
7843;SDS011;3967;48.702;9.326;2022-07-29T07:00:21;3.90;;;2.70;;
7843;SDS011;3967;48.702;9.326;2022-07-29T07:02:48;2.83;;;2.60;;
7843;SDS011;3967;48.702;9.326;2022-07-29T07:05:15;2.63;;;2.47;;
7843;SDS011;3967;48.702;9.326;2022-07-29T07:07:42;2.60;;;2.40;;
7843;SDS011;3967;48.702;9.326;2022-07-29T07:10:08;3.73;;;2.60;;
7843;SDS011;3967;48.702;9.326;2022-07-29T07:12:35;4.80;;;2.90;;
7843;SDS011;3967;48.702;9.326;2022-07-29T07:15:02;3.87;;;3.00;;
7843;SDS011;3967;48.702;9.326;2022-07-29T07:17:29;3.13;;;2.73;;
7843;SDS011;3967;48.702;9.326;2022-07-29T07:19:56;6.07;;;2.53;;
7843;SDS011;3967;48.702;9.326;2022-07-29T07:22:23;2.97;;;2.67;;
7843;SDS011;3967;48.702;9.326;2022-07-29T07:24:49;3.23;;;3.00;;
7843;SDS011;3967;48.702;9.326;2022-07-29T07:27:16;3.33;;;3.03;;
7843;SDS011;3967;48.702;9.326;2022-07-29T07:29:43;3.83;;;3.47;;
7843;SDS011;3967;48.702;9.326;2022-07-29T07:32:09;3.83;;;3.50;;
7843;SDS011;3967;48.702;9.326;2022-07-29T07:34:36;3.50;;;3.03;;
7843;SDS011;3967;48.702;9.326;2022-07-29T07:37:04;3.53;;;3.23;;
7843;SDS011;3967;48.702;9.326;2022-07-29T07:39:31;5.83;;;3.60;;
7843;SDS011;3967;48.702;9.326;2022-07-29T07:41:58;4.37;;;3.97;;
7843;SDS011;3967;48.702;9.326;2022-07-29T07:44:25;3.93;;;3.20;;
7843;SDS011;3967;48.702;9.326;2022-07-29T07:46:51;3.60;;;3.30;;
7843;SDS011;3967;48.702;9.326;2022-07-29T07:49:19;3.73;;;3.43;;
7843;SDS011;3967;48.702;9.326;2022-07-29T07:51:47;3.53;;;3.10;;
7843;SDS011;3967;48.702;9.326;2022-07-29T07:54:16;4.37;;;2.80;;
7843;SDS011;3967;48.702;9.326;2022-07-29T07:56:45;3.77;;;3.23;;
7843;SDS011;3967;48.702;9.326;2022-07-29T07:59:18;5.00;;;3.13;;
7843;SDS011;3967;48.702;9.326;2022-07-29T08:01:45;3.60;;;3.30;;
7843;SDS011;3967;48.702;9.326;2022-07-29T08:04:20;3.53;;;3.20;;
7843;SDS011;3967;48.702;9.326;2022-07-29T08:06:53;3.80;;;3.50;;
7843;SDS011;3967;48.702;9.326;2022-07-29T08:09:20;3.70;;;3.40;;
7843;SDS011;3967;48.702;9.326;2022-07-29T08:11:55;7.10;;;4.43;;
7843;SDS011;3967;48.702;9.326;2022-07-29T08:14:22;3.90;;;3.60;;
7843;SDS011;3967;48.702;9.326;2022-07-29T08:16:49;5.23;;;3.53;;
7843;SDS011;3967;48.702;9.326;2022-07-29T08:19:15;3.70;;;3.27;;
7843;SDS011;3967;48.702;9.326;2022-07-29T08:21:42;3.30;;;3.10;;
7843;SDS011;3967;48.702;9.326;2022-07-29T08:24:09;5.18;;;3.65;;
7843;SDS011;3967;48.702;9.326;2022-07-29T08:26:54;5.00;;;3.08;;
7843;SDS011;3967;48.702;9.326;2022-07-29T08:29:21;4.03;;;3.63;;
7843;SDS011;3967;48.702;9.326;2022-07-29T08:31:48;3.28;;;3.08;;
7843;SDS011;3967;48.702;9.326;2022-07-29T08:34:15;4.22;;;2.70;;
7843;SDS011;3967;48.702;9.326;2022-07-29T08:36:41;7.13;;;3.05;;
7843;SDS011;3967;48.702;9.326;2022-07-29T08:39:08;2.70;;;2.50;;
7843;SDS011;3967;48.702;9.326;2022-07-29T08:41:35;2.90;;;2.70;;
7843;SDS011;3967;48.702;9.326;2022-07-29T08:44:02;6.03;;;3.47;;
7843;SDS011;3967;48.702;9.326;2022-07-29T08:46:29;4.40;;;2.88;;
7843;SDS011;3967;48.702;9.326;2022-07-29T08:48:56;3.42;;;3.15;;
7843;SDS011;3967;48.702;9.326;2022-07-29T08:51:23;3.20;;;2.90;;
7843;SDS011;3967;48.702;9.326;2022-07-29T08:53:51;2.83;;;2.63;;
7843;SDS011;3967;48.702;9.326;2022-07-29T08:56:19;3.10;;;2.88;;
7843;SDS011;3967;48.702;9.326;2022-07-29T08:58:47;2.92;;;2.72;;
7843;SDS011;3967;48.702;9.326;2022-07-29T09:01:20;4.63;;;3.30;;
7843;SDS011;3967;48.702;9.326;2022-07-29T09:04:01;3.00;;;2.80;;
7843;SDS011;3967;48.702;9.326;2022-07-29T09:06:31;3.60;;;3.40;;
7843;SDS011;3967;48.702;9.326;2022-07-29T09:09:00;3.15;;;2.95;;
7843;SDS011;3967;48.702;9.326;2022-07-29T09:11:27;6.30;;;2.83;;
7843;SDS011;3967;48.702;9.326;2022-07-29T09:13:54;3.00;;;2.80;;
7843;SDS011;3967;48.702;9.326;2022-07-29T09:16:21;3.50;;;3.20;;
7843;SDS011;3967;48.702;9.326;2022-07-29T09:22:10;10.60;;;3.08;;
7843;SDS011;3967;48.702;9.326;2022-07-29T09:29:38;2.70;;;2.42;;
7843;SDS011;3967;48.702;9.326;2022-07-29T09:32:06;4.15;;;3.10;;
7843;SDS011;3967;48.702;9.326;2022-07-29T09:34:35;2.85;;;2.65;;
7843;SDS011;3967;48.702;9.326;2022-07-29T09:37:03;3.35;;;3.03;;
7843;SDS011;3967;48.702;9.326;2022-07-29T09:39:37;3.65;;;2.67;;
7843;SDS011;3967;48.702;9.326;2022-07-29T09:42:12;4.18;;;2.70;;
7843;SDS011;3967;48.702;9.326;2022-07-29T09:44:45;3.15;;;2.60;;
7843;SDS011;3967;48.702;9.326;2022-07-29T09:47:14;5.00;;;2.60;;
7843;SDS011;3967;48.702;9.326;2022-07-29T09:49:54;2.75;;;2.55;;
7843;SDS011;3967;48.702;9.326;2022-07-29T09:52:26;3.03;;;2.83;;
7843;SDS011;3967;48.702;9.326;2022-07-29T09:55:04;3.67;;;3.03;;
7843;SDS011;3967;48.702;9.326;2022-07-29T09:57:34;3.28;;;2.97;;
7843;SDS011;3967;48.702;9.326;2022-07-29T10:00:05;3.30;;;3.00;;
7843;SDS011;3967;48.702;9.326;2022-07-29T10:02:42;3.50;;;2.97;;
7843;SDS011;3967;48.702;9.326;2022-07-29T10:05:24;3.63;;;3.33;;
7843;SDS011;3967;48.702;9.326;2022-07-29T10:08:02;4.68;;;2.72;;
7843;SDS011;3967;48.702;9.326;2022-07-29T10:12:58;3.05;;;2.78;;
7843;SDS011;3967;48.702;9.326;2022-07-29T10:15:35;4.90;;;3.42;;
7843;SDS011;3967;48.702;9.326;2022-07-29T10:18:07;3.17;;;2.88;;
7843;SDS011;3967;48.702;9.326;2022-07-29T10:20:34;3.60;;;2.78;;
7843;SDS011;3967;48.702;9.326;2022-07-29T10:23:02;5.70;;;2.90;;
7843;SDS011;3967;48.702;9.326;2022-07-29T10:25:29;3.58;;;3.28;;
7843;SDS011;3967;48.702;9.326;2022-07-29T10:27:57;3.42;;;3.13;;
7843;SDS011;3967;48.702;9.326;2022-07-29T10:30:25;3.42;;;3.13;;
7843;SDS011;3967;48.702;9.326;2022-07-29T10:36:04;6.10;;;3.00;;
7843;SDS011;3967;48.702;9.326;2022-07-29T10:44:28;4.47;;;2.95;;
7843;SDS011;3967;48.702;9.326;2022-07-29T10:46:57;3.25;;;2.70;;
7843;SDS011;3967;48.702;9.326;2022-07-29T10:49:25;3.20;;;2.92;;
7843;SDS011;3967;48.702;9.326;2022-07-29T10:59:45;3.20;;;3.00;;
7843;SDS011;3967;48.702;9.326;2022-07-29T11:05:08;4.63;;;2.95;;
7843;SDS011;3967;48.702;9.326;2022-07-29T11:07:38;3.90;;;3.60;;
7843;SDS011;3967;48.702;9.326;2022-07-29T11:10:27;5.50;;;2.72;;
7843;SDS011;3967;48.702;9.326;2022-07-29T11:12:57;3.47;;;3.17;;
7843;SDS011;3967;48.702;9.326;2022-07-29T11:15:24;3.20;;;2.90;;
7843;SDS011;3967;48.702;9.326;2022-07-29T11:31:39;4.97;;;2.25;;
7843;SDS011;3967;48.702;9.326;2022-07-29T11:45:00;4.00;;;1.58;;
7843;SDS011;3967;48.702;9.326;2022-07-29T11:48:04;4.22;;;1.90;;
7843;SDS011;3967;48.702;9.326;2022-07-29T11:50:51;3.08;;;1.60;;
7843;SDS011;3967;48.702;9.326;2022-07-29T11:53:18;1.60;;;1.48;;
7843;SDS011;3967;48.702;9.326;2022-07-29T11:55:45;3.50;;;1.60;;
7843;SDS011;3967;48.702;9.326;2022-07-29T11:58:27;2.23;;;1.23;;
7843;SDS011;3967;48.702;9.326;2022-07-29T12:00:55;1.40;;;1.30;;
7843;SDS011;3967;48.702;9.326;2022-07-29T12:03:29;4.40;;;1.90;;
7843;SDS011;3967;48.702;9.326;2022-07-29T12:06:01;2.40;;;1.50;;
7843;SDS011;3967;48.702;9.326;2022-07-29T12:08:40;1.90;;;1.70;;
7843;SDS011;3967;48.702;9.326;2022-07-29T12:11:16;3.47;;;1.90;;
7843;SDS011;3967;48.702;9.326;2022-07-29T12:13:47;4.33;;;1.80;;
7843;SDS011;3967;48.702;9.326;2022-07-29T12:16:15;1.93;;;1.77;;
7843;SDS011;3967;48.702;9.326;2022-07-29T12:18:56;3.13;;;1.70;;
7843;SDS011;3967;48.702;9.326;2022-07-29T12:21:28;1.77;;;1.67;;
7843;SDS011;3967;48.702;9.326;2022-07-29T12:24:18;3.47;;;1.70;;
7843;SDS011;3967;48.702;9.326;2022-07-29T12:26:52;2.50;;;1.60;;
7843;SDS011;3967;48.702;9.326;2022-07-29T12:29:23;2.93;;;2.00;;
7843;SDS011;3967;48.702;9.326;2022-07-29T12:32:01;1.60;;;1.50;;
7843;SDS011;3967;48.702;9.326;2022-07-29T12:34:29;2.57;;;1.80;;
7843;SDS011;3967;48.702;9.326;2022-07-29T12:36:56;1.83;;;1.63;;
7843;SDS011;3967;48.702;9.326;2022-07-29T12:39:24;2.10;;;2.00;;
7843;SDS011;3967;48.702;9.326;2022-07-29T12:41:53;3.03;;;2.73;;
7843;SDS011;3967;48.702;9.326;2022-07-29T12:44:51;4.23;;;1.93;;
7843;SDS011;3967;48.702;9.326;2022-07-29T12:47:17;3.40;;;2.10;;
7843;SDS011;3967;48.702;9.326;2022-07-29T12:49:45;3.40;;;2.33;;
7843;SDS011;3967;48.702;9.326;2022-07-29T12:52:32;2.70;;;2.07;;
7843;SDS011;3967;48.702;9.326;2022-07-29T12:55:00;2.80;;;2.13;;
7843;SDS011;3967;48.702;9.326;2022-07-29T12:57:28;2.90;;;1.97;;
7843;SDS011;3967;48.702;9.326;2022-07-29T13:00:13;3.03;;;2.20;;
7843;SDS011;3967;48.702;9.326;2022-07-29T13:02:41;5.50;;;2.20;;
7843;SDS011;3967;48.702;9.326;2022-07-29T13:05:10;4.53;;;2.10;;
7843;SDS011;3967;48.702;9.326;2022-07-29T13:07:38;5.33;;;2.07;;
7843;SDS011;3967;48.702;9.326;2022-07-29T13:10:22;2.60;;;2.40;;
7843;SDS011;3967;48.702;9.326;2022-07-29T13:15:32;2.97;;;2.70;;
7843;SDS011;3967;48.702;9.326;2022-07-29T13:17:59;2.97;;;2.30;;
7843;SDS011;3967;48.702;9.326;2022-07-29T13:20:27;3.10;;;2.60;;
7843;SDS011;3967;48.702;9.326;2022-07-29T13:22:58;3.20;;;2.43;;
7843;SDS011;3967;48.702;9.326;2022-07-29T13:27:55;3.87;;;2.80;;
7843;SDS011;3967;48.702;9.326;2022-07-29T13:30:22;3.37;;;3.10;;
7843;SDS011;3967;48.702;9.326;2022-07-29T13:32:50;7.20;;;3.93;;
7843;SDS011;3967;48.702;9.326;2022-07-29T13:35:19;6.03;;;2.77;;
7843;SDS011;3967;48.702;9.326;2022-07-29T13:37:46;5.63;;;4.07;;
7843;SDS011;3967;48.702;9.326;2022-07-29T13:40:13;8.07;;;3.70;;
7843;SDS011;3967;48.702;9.326;2022-07-29T13:42:40;4.50;;;3.43;;
7843;SDS011;3967;48.702;9.326;2022-07-29T13:45:08;4.30;;;3.37;;
7843;SDS011;3967;48.702;9.326;2022-07-29T13:47:37;3.70;;;3.30;;
7843;SDS011;3967;48.702;9.326;2022-07-29T13:50:04;2.93;;;2.73;;
7843;SDS011;3967;48.702;9.326;2022-07-29T13:52:33;5.93;;;3.90;;
7843;SDS011;3967;48.702;9.326;2022-07-29T13:55:01;4.70;;;2.93;;
7843;SDS011;3967;48.702;9.326;2022-07-29T13:57:28;3.87;;;3.60;;
7843;SDS011;3967;48.702;9.326;2022-07-29T13:59:55;6.20;;;3.07;;
7843;SDS011;3967;48.702;9.326;2022-07-29T14:02:22;4.33;;;3.93;;
7843;SDS011;3967;48.702;9.326;2022-07-29T14:04:51;5.03;;;3.90;;
7843;SDS011;3967;48.702;9.326;2022-07-29T14:07:18;5.27;;;4.77;;
7843;SDS011;3967;48.702;9.326;2022-07-29T14:09:45;5.13;;;4.00;;
7843;SDS011;3967;48.702;9.326;2022-07-29T14:12:12;5.33;;;4.70;;
7843;SDS011;3967;48.702;9.326;2022-07-29T14:14:39;5.67;;;5.17;;
7843;SDS011;3967;48.702;9.326;2022-07-29T14:17:05;4.73;;;4.30;;
7843;SDS011;3967;48.702;9.326;2022-07-29T14:19:33;4.33;;;4.03;;
7843;SDS011;3967;48.702;9.326;2022-07-29T14:22:05;5.03;;;4.53;;
7843;SDS011;3967;48.702;9.326;2022-07-29T14:24:34;6.90;;;5.40;;
7843;SDS011;3967;48.702;9.326;2022-07-29T14:27:02;5.53;;;4.77;;
7843;SDS011;3967;48.702;9.326;2022-07-29T14:29:30;4.97;;;4.47;;
7843;SDS011;3967;48.702;9.326;2022-07-29T14:32:03;5.67;;;4.83;;
7843;SDS011;3967;48.702;9.326;2022-07-29T14:34:34;6.47;;;4.40;;
7843;SDS011;3967;48.702;9.326;2022-07-29T14:37:02;4.57;;;4.23;;
7843;SDS011;3967;48.702;9.326;2022-07-29T14:39:31;5.03;;;4.57;;
7843;SDS011;3967;48.702;9.326;2022-07-29T14:42:04;4.73;;;3.43;;
7843;SDS011;3967;48.702;9.326;2022-07-29T14:44:31;4.33;;;4.00;;
7843;SDS011;3967;48.702;9.326;2022-07-29T14:46:58;4.33;;;3.93;;
7843;SDS011;3967;48.702;9.326;2022-07-29T14:49:33;4.83;;;4.43;;
7843;SDS011;3967;48.702;9.326;2022-07-29T14:51:59;4.40;;;3.97;;
7843;SDS011;3967;48.702;9.326;2022-07-29T14:54:27;4.37;;;3.97;;
7843;SDS011;3967;48.702;9.326;2022-07-29T14:56:53;4.10;;;3.80;;
7843;SDS011;3967;48.702;9.326;2022-07-29T14:59:23;4.70;;;4.33;;
7843;SDS011;3967;48.702;9.326;2022-07-29T15:01:50;4.50;;;4.07;;
7843;SDS011;3967;48.702;9.326;2022-07-29T15:04:17;4.33;;;3.70;;
7843;SDS011;3967;48.702;9.326;2022-07-29T15:06:43;4.70;;;4.30;;
7843;SDS011;3967;48.702;9.326;2022-07-29T15:09:10;4.60;;;4.20;;
7843;SDS011;3967;48.702;9.326;2022-07-29T15:11:37;4.40;;;4.07;;
7843;SDS011;3967;48.702;9.326;2022-07-29T15:14:04;5.50;;;4.40;;
7843;SDS011;3967;48.702;9.326;2022-07-29T15:16:32;3.90;;;3.70;;
7843;SDS011;3967;48.702;9.326;2022-07-29T15:19:01;4.27;;;3.97;;
7843;SDS011;3967;48.702;9.326;2022-07-29T15:21:28;8.10;;;5.70;;
7843;SDS011;3967;48.702;9.326;2022-07-29T15:23:55;4.97;;;4.57;;
7843;SDS011;3967;48.702;9.326;2022-07-29T15:26:21;5.77;;;4.80;;
7843;SDS011;3967;48.702;9.326;2022-07-29T15:28:48;4.93;;;4.53;;
7843;SDS011;3967;48.702;9.326;2022-07-29T15:31:15;5.00;;;4.60;;
7843;SDS011;3967;48.702;9.326;2022-07-29T15:33:42;4.23;;;3.93;;
7843;SDS011;3967;48.702;9.326;2022-07-29T15:36:08;3.93;;;3.73;;
7843;SDS011;3967;48.702;9.326;2022-07-29T15:38:57;4.67;;;4.27;;
7843;SDS011;3967;48.702;9.326;2022-07-29T15:41:24;9.77;;;4.00;;
7843;SDS011;3967;48.702;9.326;2022-07-29T15:43:51;5.27;;;4.07;;
7843;SDS011;3967;48.702;9.326;2022-07-29T15:46:18;4.53;;;4.10;;
7843;SDS011;3967;48.702;9.326;2022-07-29T15:49:05;2.87;;;2.67;;
7843;SDS011;3967;48.702;9.326;2022-07-29T15:51:32;3.93;;;3.63;;
7843;SDS011;3967;48.702;9.326;2022-07-29T15:54:03;4.73;;;4.33;;
7843;SDS011;3967;48.702;9.326;2022-07-29T15:56:30;4.07;;;3.67;;
7843;SDS011;3967;48.702;9.326;2022-07-29T15:58:57;3.50;;;3.20;;
7843;SDS011;3967;48.702;9.326;2022-07-29T16:01:26;3.50;;;3.30;;
7843;SDS011;3967;48.702;9.326;2022-07-29T16:03:53;3.33;;;3.13;;
7843;SDS011;3967;48.702;9.326;2022-07-29T16:06:20;4.43;;;4.07;;
7843;SDS011;3967;48.702;9.326;2022-07-29T16:08:47;4.00;;;3.80;;
7843;SDS011;3967;48.702;9.326;2022-07-29T16:11:14;3.83;;;3.50;;
7843;SDS011;3967;48.702;9.326;2022-07-29T16:13:41;4.23;;;3.93;;
7843;SDS011;3967;48.702;9.326;2022-07-29T16:16:08;3.53;;;3.23;;
7843;SDS011;3967;48.702;9.326;2022-07-29T16:18:35;4.37;;;3.10;;
7843;SDS011;3967;48.702;9.326;2022-07-29T16:21:02;3.37;;;3.07;;
7843;SDS011;3967;48.702;9.326;2022-07-29T16:23:29;2.97;;;2.70;;
7843;SDS011;3967;48.702;9.326;2022-07-29T16:25:55;3.27;;;3.07;;
7843;SDS011;3967;48.702;9.326;2022-07-29T16:28:26;4.50;;;3.13;;
7843;SDS011;3967;48.702;9.326;2022-07-29T16:30:53;3.53;;;3.20;;
7843;SDS011;3967;48.702;9.326;2022-07-29T16:33:20;3.50;;;3.20;;
7843;SDS011;3967;48.702;9.326;2022-07-29T16:35:47;3.53;;;3.33;;
7843;SDS011;3967;48.702;9.326;2022-07-29T16:38:15;3.83;;;3.37;;
7843;SDS011;3967;48.702;9.326;2022-07-29T16:40:42;4.63;;;3.37;;
7843;SDS011;3967;48.702;9.326;2022-07-29T16:43:09;4.23;;;3.67;;